Temp: 6.1°C   Baro: 1003.7mb
  Wind: 4.9mph   Dir: NNE (24°)
  Rain: 4.2mm (0.0mm/hr)
  Solar: 0W/m2  Hum: 88%

Historic data

Bath Spa Weather Station Historical Data
Daily Summary for September 25, 2021 Units:  English    Metric   Both
Daily Weekly Monthly Yearly Custom
  High: Low: Average:
Temperature: 67.5 °F 59.4 °F 62.8 °F
Dew Point: 62.8 °F 57.3 °F 60.4 °F
Humidity: 95% 80.4% 90%
Wind Speed: 4.7mph 0mph 1.1mph
Wind Gust: 9mph - -
Wind- - WNW
Pressure: 30.01 in 29.89 in -
Precipitation: 0.00 in    
Historical Graphs
 
 
Tabular Data for September 25, 2021
Time Temperature Dew Point Pressure Wind Wind Speed Wind Gust Humidity Rainfall Rate (Hourly) solar
00:04 62.3 °F 60.9 °F 30.01 in WNW 2.4 mph 5 mph 92% 0.00 in 0 W/m2
00:09 62.2 °F 60.8 °F 30.01 in WNW 3 mph 5 mph 92% 0.00 in 0 W/m2
00:14 62.2 °F 60.8 °F 30.01 in WNW 3.6 mph 6 mph 92% 0.00 in 0 W/m2
00:18 62.2 °F 60.8 °F 30.01 in WNW 2.7 mph 5 mph 92% 0.00 in 0 W/m2
00:24 62.2 °F 60.8 °F 30.01 in WNW 3.3 mph 5 mph 92% 0.00 in 0 W/m2
00:29 62.1 °F 60.6 °F 30.01 in WNW 1.7 mph 5 mph 92% 0.00 in 0 W/m2
00:34 62.1 °F 60.8 °F 30.01 in WNW 1.9 mph 5 mph 92.6% 0.00 in 0 W/m2
00:39 62 °F 60.9 °F 30.01 in WNW 2.5 mph 5 mph 93% 0.00 in 0 W/m2
00:44 61.9 °F 60.8 °F 30.01 in WNW 3.4 mph 5 mph 93% 0.00 in 0 W/m2
00:49 61.8 °F 60.7 °F 30.01 in WNW 1.4 mph 4 mph 93% 0.00 in 0 W/m2
00:54 61.6 °F 60.5 °F 30.01 in WNW 2.8 mph 5 mph 93% 0.00 in 0 W/m2
00:59 61.5 °F 60.4 °F 30.01 in WNW 2.1 mph 5 mph 93% 0.00 in 0 W/m2
01:04 61.5 °F 60.4 °F 30.00 in WNW 4.2 mph 7 mph 93% 0.00 in 0 W/m2
01:09 61.5 °F 60.4 °F 30.00 in WNW 2.3 mph 5 mph 93% 0.00 in 0 W/m2
01:14 61.4 °F 60.3 °F 30.00 in WNW 2.6 mph 5 mph 93% 0.00 in 0 W/m2
01:19 61.3 °F 60.3 °F 30.00 in WNW 1.6 mph 4 mph 93% 0.00 in 0 W/m2
01:24 61.4 °F 60.3 °F 30.00 in WNW 2.9 mph 6 mph 93% 0.00 in 0 W/m2
01:29 61.3 °F 60.3 °F 30.00 in WNW 4.1 mph 7 mph 93% 0.00 in 0 W/m2
01:34 61.3 °F 60.4 °F 30.00 in WNW 1.6 mph 4 mph 93.8% 0.00 in 0 W/m2
01:39 61.3 °F 60.4 °F 30.01 in WNW 2 mph 6 mph 94% 0.00 in 0 W/m2
01:44 61.2 °F 60.3 °F 30.01 in WNW 2.5 mph 6 mph 94% 0.00 in 0 W/m2
01:49 61.2 °F 60.3 °F 30.01 in WNW 3.2 mph 5 mph 94% 0.00 in 0 W/m2
01:54 61.2 °F 60.3 °F 30.00 in WNW 2.9 mph 5 mph 94% 0.00 in 0 W/m2
01:59 61.2 °F 60.3 °F 30.00 in WNW 1.7 mph 5 mph 94% 0.00 in 0 W/m2
02:04 61.2 °F 60.3 °F 30.00 in WNW 2.9 mph 6 mph 94% 0.00 in 0 W/m2
02:09 61 °F 60.1 °F 30.00 in WNW 1.9 mph 6 mph 94% 0.00 in 0 W/m2
02:14 61 °F 60.1 °F 30.00 in WNW 2.5 mph 5 mph 94% 0.00 in 0 W/m2
02:19 60.9 °F 60 °F 30.00 in WNW 2.9 mph 6 mph 94% 0.00 in 0 W/m2
02:24 60.8 °F 59.9 °F 30.00 in WNW 1.7 mph 6 mph 94% 0.00 in 0 W/m2
02:29 60.8 °F 59.9 °F 30.00 in WNW 2.5 mph 6 mph 94% 0.00 in 0 W/m2
02:34 60.8 °F 59.9 °F 30.00 in WNW 2.9 mph 6 mph 94% 0.00 in 0 W/m2
02:39 60.8 °F 59.9 °F 30.00 in WNW 2 mph 5 mph 94% 0.00 in 0 W/m2
02:44 60.7 °F 59.8 °F 30.00 in WNW 2.1 mph 7 mph 94% 0.00 in 0 W/m2
02:49 60.7 °F 59.8 °F 30.00 in WNW 2.9 mph 6 mph 94% 0.00 in 0 W/m2
02:54 60.6 °F 59.7 °F 30.00 in WNW 2.5 mph 5 mph 94% 0.00 in 0 W/m2
02:59 60.6 °F 59.7 °F 30.00 in WNW 1.5 mph 3 mph 94% 0.00 in 0 W/m2
03:04 60.6 °F 59.7 °F 30.00 in WNW 1 mph 3 mph 94% 0.00 in 0 W/m2
03:09 60.6 °F 59.7 °F 30.00 in WNW 0.6 mph 3 mph 94% 0.00 in 0 W/m2
03:14 60.6 °F 59.7 °F 30.00 in WNW 1.7 mph 4 mph 94% 0.00 in 0 W/m2
03:19 60.6 °F 59.7 °F 30.00 in WNW 3 mph 5 mph 94% 0.00 in 0 W/m2
03:24 60.5 °F 59.6 °F 29.99 in WNW 2.3 mph 5 mph 94% 0.00 in 0 W/m2
03:29 60.5 °F 59.6 °F 29.99 in WNW 2.5 mph 5 mph 94% 0.00 in 0 W/m2
03:34 60.4 °F 59.5 °F 29.99 in WNW 2.4 mph 5 mph 94% 0.00 in 0 W/m2
03:39 60.4 °F 59.5 °F 29.99 in WNW 2.9 mph 6 mph 94% 0.00 in 0 W/m2
03:44 60.4 °F 59.5 °F 29.98 in WNW 2.2 mph 5 mph 94% 0.00 in 0 W/m2
03:49 60.4 °F 59.4 °F 29.98 in WNW 1.7 mph 5 mph 93.4% 0.00 in 0 W/m2
03:54 60.4 °F 59.4 °F 29.98 in WNW 0.9 mph 3 mph 93% 0.00 in 0 W/m2
03:59 60.4 °F 59.5 °F 29.98 in WNW 2.1 mph 5 mph 94% 0.00 in 0 W/m2
04:04 60.4 °F 59.5 °F 29.98 in WNW 0.9 mph 3 mph 93.8% 0.00 in 0 W/m2
04:09 60.4 °F 59.5 °F 29.98 in WNW 1.3 mph 3 mph 94% 0.00 in 0 W/m2
04:14 60.4 °F 59.5 °F 29.98 in WNW 0.6 mph 3 mph 93.8% 0.00 in 0 W/m2
04:19 60.4 °F 59.5 °F 29.98 in WNW 0.5 mph 1 mph 94% 0.00 in 0 W/m2
04:24 60.4 °F 59.5 °F 29.98 in WNW 0.2 mph 1 mph 94% 0.00 in 0 W/m2
04:29 60.4 °F 59.5 °F 29.98 in WNW 0.7 mph 3 mph 94% 0.00 in 0 W/m2
04:34 60.4 °F 59.5 °F 29.98 in WNW 0.5 mph 2 mph 94% 0.00 in 0 W/m2
04:39 60.4 °F 59.5 °F 29.98 in WNW 0.2 mph 1 mph 94% 0.00 in 0 W/m2
04:44 60.3 °F 59.4 °F 29.98 in WNW 0.8 mph 2 mph 93.8% 0.00 in 0 W/m2
04:49 60.3 °F 59.3 °F 29.98 in WNW 1.6 mph 2 mph 93.6% 0.00 in 0 W/m2
04:54 60.3 °F 59.2 °F 29.98 in WNW 0.8 mph 2 mph 93.2% 0.00 in 0 W/m2
04:59 60.3 °F 59.2 °F 29.98 in WNW 0.4 mph 3 mph 93% 0.00 in 0 W/m2
05:04 60.3 °F 59.3 °F 29.98 in WNW 1.6 mph 3 mph 93.4% 0.00 in 0 W/m2
05:09 60.4 °F 59.4 °F 29.98 in WNW 1 mph 2 mph 93.8% 0.00 in 0 W/m2
05:14 60.4 °F 59.5 °F 29.98 in WNW 0.4 mph 2 mph 94% 0.00 in 0 W/m2
05:19 60.4 °F 59.5 °F 29.98 in WNW 1.2 mph 2 mph 94% 0.00 in 0 W/m2
05:24 60.4 °F 59.5 °F 29.98 in Calm   2 mph 94% 0.00 in 0 W/m2
05:29 60.4 °F 59.5 °F 29.98 in WNW 0.4 mph 2 mph 94% 0.00 in 0 W/m2
05:34 60.5 °F 59.6 °F 29.98 in Calm   2 mph 94% 0.00 in 0 W/m2
05:39 60.5 °F 59.6 °F 29.98 in WNW 0.2 mph 2 mph 94% 0.00 in 0 W/m2
05:44 60.6 °F 59.7 °F 29.97 in WNW 0.5 mph 3 mph 94% 0.00 in 0 W/m2
05:49 60.5 °F 59.6 °F 29.97 in WNW 0.4 mph 3 mph 94% 0.00 in 0 W/m2
05:54 60.4 °F 59.5 °F 29.97 in WNW 1 mph 3 mph 94% 0.00 in 0 W/m2
05:59 60.4 °F 59.5 °F 29.97 in WNW 1 mph 4 mph 94% 0.00 in 0 W/m2
06:04 60.4 °F 59.5 °F 29.97 in WNW 0.8 mph 2 mph 94% 0.00 in 0 W/m2
06:09 60.4 °F 59.5 °F 29.97 in Calm   3 mph 93.6% 0.00 in 0 W/m2
06:14 60.4 °F 59.5 °F 29.97 in WNW 0.2 mph 2 mph 93.8% 0.00 in 0 W/m2
06:19 60.3 °F 59.3 °F 29.97 in WNW 0.5 mph 2 mph 93.4% 0.00 in 0 W/m2
06:24 60.3 °F 59.2 °F 29.97 in Calm   1 mph 93% 0.00 in 0 W/m2
06:28 60.3 °F 59.3 °F 29.97 in WNW 0.2 mph 1 mph 93.5% 0.00 in 0 W/m2
06:34 60.3 °F 59.4 °F 29.97 in Calm   1 mph 94% 0.00 in 0 W/m2
06:39 60.3 °F 59.4 °F 29.96 in Calm     94% 0.00 in 0 W/m2
06:44 60.3 °F 59.4 °F 29.96 in Calm     94% 0.00 in 0 W/m2
06:49 60.3 °F 59.4 °F 29.97 in Calm     94% 0.00 in 0 W/m2
06:54 60.3 °F 59.4 °F 29.97 in Calm     94% 0.00 in 0 W/m2
06:59 60.3 °F 59.4 °F 29.97 in Calm     94% 0.00 in 0 W/m2
07:04 60.1 °F 59.2 °F 29.97 in Calm     94% 0.00 in 0 W/m2
07:09 60.1 °F 59.2 °F 29.97 in WNW 0.4 mph 2 mph 94% 0.00 in 0 W/m2
07:14 60.1 °F 59.2 °F 29.97 in WNW 0.6 mph 3 mph 94% 0.00 in 5 W/m2
07:19 60.1 °F 59.2 °F 29.97 in WNW 0.5 mph 3 mph 94% 0.00 in 5 W/m2
07:24 60.1 °F 59.2 °F 29.97 in Calm   1 mph 94% 0.00 in 9 W/m2
07:29 60.1 °F 59.2 °F 29.97 in WNW 0.6 mph 2 mph 94% 0.00 in 9 W/m2
07:34 60.1 °F 59.2 °F 29.97 in WNW 1.1 mph 3 mph 94% 0.00 in 12 W/m2
07:38 60.1 °F 59.2 °F 29.97 in WNW 1.9 mph 4 mph 94% 0.00 in 12 W/m2
07:44 60 °F 59.1 °F 29.97 in WNW 2 mph 4 mph 94% 0.00 in 14 W/m2
07:49 59.7 °F 58.8 °F 29.97 in WNW 1.6 mph 4 mph 94% 0.00 in 16 W/m2
07:54 59.7 °F 58.8 °F 29.97 in WNW 3.2 mph 5 mph 94% 0.00 in 26 W/m2
07:59 59.5 °F 58.6 °F 29.97 in WNW 2.5 mph 5 mph 94% 0.00 in 30 W/m2
08:04 59.5 °F 58.6 °F 29.97 in WNW 1.4 mph 3 mph 94% 0.00 in 40 W/m2
08:09 59.5 °F 58.6 °F 29.97 in WNW 2.1 mph 5 mph 94% 0.00 in 42 W/m2
08:14 59.5 °F 58.6 °F 29.97 in WNW 0.9 mph 4 mph 94% 0.00 in 39 W/m2
08:19 59.5 °F 58.6 °F 29.97 in WNW 1.2 mph 4 mph 94% 0.00 in 42 W/m2
08:24 59.4 °F 58.5 °F 29.98 in WNW 0.4 mph 4 mph 94% 0.00 in 54 W/m2
08:29 59.4 °F 58.5 °F 29.98 in WNW 0.9 mph 4 mph 94% 0.00 in 56 W/m2
08:34 59.4 °F 58.5 °F 29.98 in WNW 1 mph 3 mph 94% 0.00 in 53 W/m2
08:39 59.4 °F 58.5 °F 29.98 in WNW 0.6 mph 3 mph 94% 0.00 in 63 W/m2
08:44 59.4 °F 58.5 °F 29.98 in WNW 1.3 mph 4 mph 94% 0.00 in 83 W/m2
08:49 59.4 °F 58.5 °F 29.98 in WNW 0.9 mph 4 mph 94% 0.00 in 107 W/m2
08:54 59.4 °F 58.6 °F 29.98 in Calm   2 mph 94.4% 0.00 in 118 W/m2
08:59 59.5 °F 58.8 °F 29.98 in Calm   1 mph 94.6% 0.00 in 125 W/m2
09:04 59.5 °F 58.6 °F 29.98 in Calm     94% 0.00 in 149 W/m2
09:09 59.7 °F 58.8 °F 29.98 in Calm     94% 0.00 in 199 W/m2
09:14 59.9 °F 59.2 °F 29.98 in WNW 1 mph 3 mph 94.6% 0.00 in 155 W/m2
09:19 59.9 °F 59.4 °F 29.98 in WNW 1 mph 3 mph 95% 0.00 in 135 W/m2
09:24 59.9 °F 59.4 °F 29.98 in Calm   2 mph 95% 0.00 in 142 W/m2
09:29 60.2 °F 59.4 °F 29.98 in Calm     94.4% 0.00 in 153 W/m2
09:34 60.4 °F 59.5 °F 29.98 in WNW 0.4 mph 2 mph 94% 0.00 in 155 W/m2
09:39 60.4 °F 59.5 °F 29.98 in Calm   1 mph 94% 0.00 in 149 W/m2
09:44 60.7 °F 59.8 °F 29.98 in Calm     94% 0.00 in 158 W/m2
09:49 61 °F 60.1 °F 29.98 in Calm     94% 0.00 in 149 W/m2
09:54 61 °F 60.1 °F 29.98 in WNW 1.2 mph 3 mph 94% 0.00 in 135 W/m2
09:59 61.1 °F 60.2 °F 29.98 in WNW 0.2 mph 3 mph 94% 0.00 in 151 W/m2
10:04 61.4 °F 60.5 °F 29.98 in WNW 0.2 mph 2 mph 94% 0.00 in 169 W/m2
10:09 61.9 °F 61 °F 29.98 in Calm     94% 0.00 in 185 W/m2
10:14 61.9 °F 61 °F 29.98 in Calm     93.8% 0.00 in 179 W/m2
10:19 62 °F 60.9 °F 29.98 in Calm   2 mph 93% 0.00 in 186 W/m2
10:24 62.3 °F 61.3 °F 29.98 in Calm     93% 0.00 in 237 W/m2
10:29 62.4 °F 61.3 °F 29.98 in WNW 0.8 mph 2 mph 92.8% 0.00 in 253 W/m2
10:34 62.7 °F 61.2 °F 29.97 in WNW 0.2 mph 3 mph 92% 0.00 in 253 W/m2
10:39 62.9 °F 61.2 °F 29.98 in Calm     91.2% 0.00 in 211 W/m2
10:44 63.5 °F 61.7 °F 29.98 in Calm     91% 0.00 in 202 W/m2
10:49 64 °F 62 °F 29.98 in Calm     90.4% 0.00 in 202 W/m2
10:54 64 °F 61.8 °F 29.98 in WNW 0.6 mph 3 mph 89.4% 0.00 in 178 W/m2
10:59 64 °F 61.7 °F 29.98 in Calm     89% 0.00 in 171 W/m2
11:04 64.2 °F 61.7 °F 29.98 in Calm     88.6% 0.00 in 202 W/m2
11:09 64.6 °F 61.9 °F 29.97 in Calm     88% 0.00 in 225 W/m2
11:14 64.8 °F 61.9 °F 29.97 in WNW 1 mph 5 mph 87.6% 0.00 in 258 W/m2
11:19 64.6 °F 61.1 °F 29.97 in WNW 2.3 mph 5 mph 85.8% 0.00 in 262 W/m2
11:24 64.6 °F 60.5 °F 29.97 in WNW 2.6 mph 6 mph 84% 0.00 in 262 W/m2
11:29 64.8 °F 60.4 °F 29.97 in WNW 1.7 mph 4 mph 83% 0.00 in 253 W/m2
11:34 64.9 °F 60.3 °F 29.96 in WNW 0.8 mph 4 mph 82% 0.00 in 241 W/m2
11:39 65.6 °F 60.8 °F 29.96 in Calm   2 mph 81.6% 0.00 in 260 W/m2
11:44 65.9 °F 60.9 °F 29.96 in WNW 0.6 mph 3 mph 81% 0.00 in 248 W/m2
11:49 66 °F 60.8 °F 29.96 in WNW 2.2 mph 5 mph 80.4% 0.00 in 237 W/m2
11:54 66 °F 61 °F 29.96 in WNW 1.5 mph 4 mph 81% 0.00 in 230 W/m2
11:59 66 °F 61 °F 29.96 in WNW 2.1 mph 5 mph 81% 0.00 in 193 W/m2
12:04 66 °F 61 °F 29.96 in WNW 1.2 mph 4 mph 81% 0.00 in 190 W/m2
12:09 66.1 °F 61.1 °F 29.96 in WNW 1.4 mph 4 mph 81% 0.00 in 197 W/m2
12:14 66.3 °F 61.2 °F 29.96 in WNW 1.3 mph 4 mph 81% 0.00 in 167 W/m2
12:19 66.2 °F 61.2 °F 29.96 in WNW 1.4 mph 5 mph 81% 0.00 in 142 W/m2
12:24 66 °F 61 °F 29.96 in WNW 2.4 mph 4 mph 81% 0.00 in 121 W/m2
12:29 65.8 °F 60.8 °F 29.96 in WNW 1.3 mph 5 mph 81% 0.00 in 174 W/m2
12:34 65.7 °F 61 °F 29.96 in WNW 2.5 mph 5 mph 82% 0.00 in 169 W/m2
12:39 65.7 °F 61 °F 29.96 in WNW 1 mph 3 mph 82% 0.00 in 148 W/m2
12:44 65.8 °F 61 °F 29.96 in Calm     82% 0.00 in 146 W/m2
12:49 65.9 °F 61.1 °F 29.96 in WNW 2.2 mph 6 mph 82% 0.00 in 148 W/m2
12:54 65.8 °F 61.1 °F 29.96 in WNW 0.6 mph 4 mph 82.2% 0.00 in 151 W/m2
12:59 65.8 °F 61.3 °F 29.96 in WNW 1 mph 5 mph 83% 0.00 in 165 W/m2
13:04 65.8 °F 61.3 °F 29.95 in WNW 0.8 mph 5 mph 83% 0.00 in 174 W/m2
13:09 65.9 °F 61.4 °F 29.95 in WNW 0.4 mph 3 mph 83% 0.00 in 174 W/m2
13:14 66 °F 61.5 °F 29.95 in WNW 1.8 mph 4 mph 83% 0.00 in 155 W/m2
13:19 66 °F 61.5 °F 29.95 in WNW 1 mph 4 mph 83% 0.00 in 186 W/m2
13:24 66.1 °F 61.6 °F 29.94 in Calm     83% 0.00 in 229 W/m2
13:29 66.4 °F 61.8 °F 29.94 in Calm     82.8% 0.00 in 260 W/m2
13:34 66.4 °F 61.6 °F 29.94 in WNW 0.2 mph 2 mph 82.2% 0.00 in 260 W/m2
13:39 66.4 °F 61.5 °F 29.94 in WNW 0.4 mph 2 mph 82% 0.00 in 225 W/m2
13:44 66.4 °F 61.5 °F 29.94 in WNW 1.2 mph 4 mph 82% 0.00 in 171 W/m2
13:49 66.3 °F 61.3 °F 29.94 in WNW 0.7 mph 3 mph 82% 0.00 in 163 W/m2
13:54 66.3 °F 61.4 °F 29.94 in WNW 1 mph 4 mph 82% 0.00 in 172 W/m2
13:59 66.4 °F 61.5 °F 29.94 in WNW 1.7 mph 4 mph 82% 0.00 in 151 W/m2
14:04 66.6 °F 61.7 °F 29.94 in Calm   2 mph 82% 0.00 in 134 W/m2
14:09 66.6 °F 61.7 °F 29.94 in Calm     82% 0.00 in 165 W/m2
14:14 66.7 °F 61.8 °F 29.94 in Calm     82% 0.00 in 186 W/m2
14:19 66.8 °F 62 °F 29.93 in Calm     82% 0.00 in 190 W/m2
14:24 67.2 °F 62.3 °F 29.93 in Calm     81.8% 0.00 in 174 W/m2
14:29 67.4 °F 62.4 °F 29.93 in Calm     81.6% 0.00 in 151 W/m2
14:34 67.5 °F 62.2 °F 29.93 in Calm     81% 0.00 in 102 W/m2
14:39 67.5 °F 62.2 °F 29.93 in Calm     81% 0.00 in 83 W/m2
14:44 67.3 °F 62.1 °F 29.93 in Calm     81% 0.00 in 116 W/m2
14:49 67.3 °F 62.1 °F 29.93 in Calm     81% 0.00 in 149 W/m2
14:54 67.4 °F 62.1 °F 29.93 in Calm     81% 0.00 in 139 W/m2
14:59 67.3 °F 62.1 °F 29.93 in Calm     81% 0.00 in 91 W/m2
15:04 67.5 °F 62.2 °F 29.93 in Calm     81% 0.00 in 69 W/m2
15:09 67.5 °F 62.2 °F 29.92 in Calm     81% 0.00 in 72 W/m2
15:14 67.5 °F 62.2 °F 29.92 in Calm     81% 0.00 in 95 W/m2
15:19 67.2 °F 62 °F 29.92 in Calm     81.2% 0.00 in 132 W/m2
15:24 66.7 °F 61.9 °F 29.92 in Calm     82% 0.00 in 160 W/m2
15:29 66.5 °F 61.8 °F 29.92 in Calm     82.6% 0.00 in 178 W/m2
15:34 66.7 °F 62.2 °F 29.92 in WNW 0.4 mph 2 mph 83% 0.00 in 188 W/m2
15:39 66.9 °F 62.4 °F 29.92 in Calm   1 mph 83% 0.00 in 185 W/m2
15:44 67.3 °F 62.8 °F 29.91 in WNW 0.5 mph 2 mph 83% 0.00 in 174 W/m2
15:49 67 °F 62.2 °F 29.91 in Calm   2 mph 82% 0.00 in 162 W/m2
15:54 66.8 °F 62.1 °F 29.91 in WNW 0.2 mph 2 mph 82.4% 0.00 in 132 W/m2
15:59 66.6 °F 62.1 °F 29.91 in WNW 1 mph 3 mph 83% 0.00 in 114 W/m2
16:04 66.6 °F 62.1 °F 29.91 in WNW 1 mph 3 mph 83% 0.00 in 97 W/m2
16:09 66.6 °F 62.1 °F 29.91 in WNW 1.6 mph 5 mph 83% 0.00 in 72 W/m2
16:14 66.4 °F 62.1 °F 29.91 in WNW 2.8 mph 6 mph 83.6% 0.00 in 54 W/m2
16:19 66.1 °F 62.3 °F 29.91 in WNW 0.6 mph 6 mph 84.8% 0.00 in 49 W/m2
16:24 65.9 °F 62.2 °F 29.91 in WNW 1.9 mph 5 mph 85% 0.00 in 63 W/m2
16:29 65.7 °F 62.3 °F 29.91 in WNW 1.3 mph 5 mph 86% 0.00 in 77 W/m2
16:34 65.5 °F 62.1 °F 29.91 in WNW 1.2 mph 5 mph 86% 0.00 in 81 W/m2
16:39 65.5 °F 62.2 °F 29.91 in WNW 2.9 mph 6 mph 86.6% 0.00 in 76 W/m2
16:44 65.1 °F 61.9 °F 29.91 in WNW 1.6 mph 6 mph 86.6% 0.00 in 60 W/m2
16:49 65.1 °F 62.1 °F 29.91 in WNW 1.2 mph 5 mph 87% 0.00 in 60 W/m2
16:54 65.1 °F 62.1 °F 29.91 in WNW 0.8 mph 4 mph 87% 0.00 in 56 W/m2
16:59 64.9 °F 62 °F 29.91 in WNW 1.3 mph 4 mph 87.2% 0.00 in 65 W/m2
17:04 64.9 °F 62.2 °F 29.91 in WNW 3 mph 6 mph 88% 0.00 in 65 W/m2
17:09 64.8 °F 62.1 °F 29.91 in WNW 0.6 mph 5 mph 88% 0.00 in 60 W/m2
17:14 64.8 °F 62.1 °F 29.91 in Calm   2 mph 88% 0.00 in 69 W/m2
17:19 65 °F 62.3 °F 29.91 in Calm     88% 0.00 in 72 W/m2
17:24 65.3 °F 62.6 °F 29.91 in Calm     88% 0.00 in 72 W/m2
17:29 65.5 °F 62.8 °F 29.91 in Calm     88% 0.00 in 63 W/m2
17:34 65.5 °F 62.7 °F 29.90 in WNW 0.2 mph 4 mph 87.8% 0.00 in 51 W/m2
17:39 65.2 °F 62.1 °F 29.90 in WNW 0.8 mph 4 mph 87% 0.00 in 39 W/m2
17:44 65.1 °F 62.1 °F 29.90 in WNW 0.4 mph 3 mph 87% 0.00 in 35 W/m2
17:49 65.1 °F 62.1 °F 29.90 in Calm   1 mph 87% 0.00 in 33 W/m2
17:54 65.1 °F 62.1 °F 29.90 in WNW 0.4 mph 3 mph 87% 0.00 in 25 W/m2
17:59 65.3 °F 62.2 °F 29.90 in Calm   3 mph 87% 0.00 in 21 W/m2
18:04 65.3 °F 62.2 °F 29.90 in WNW 0.2 mph 3 mph 87% 0.00 in 19 W/m2
18:09 65.1 °F 62.1 °F 29.90 in WNW 0.8 mph 3 mph 87% 0.00 in 18 W/m2
18:14 64.9 °F 61.9 °F 29.90 in WNW 0.2 mph 3 mph 87% 0.00 in 18 W/m2
18:19 64.9 °F 61.9 °F 29.90 in Calm   2 mph 87% 0.00 in 16 W/m2
18:24 64.9 °F 61.9 °F 29.90 in WNW 1.8 mph 5 mph 87% 0.00 in 14 W/m2
18:29 64.9 °F 61.9 °F 29.90 in WNW 0.4 mph 3 mph 87% 0.00 in 9 W/m2
18:34 64.9 °F 62 °F 29.90 in WNW 0.4 mph 4 mph 87.4% 0.00 in 5 W/m2
18:39 64.9 °F 62.2 °F 29.90 in WNW 0.6 mph 4 mph 88% 0.00 in 0 W/m2
18:44 64.9 °F 62.2 °F 29.90 in WNW 0.5 mph 4 mph 88% 0.00 in 0 W/m2
18:49 65 °F 62.3 °F 29.90 in WNW 0.4 mph 4 mph 88% 0.00 in 0 W/m2
18:54 65 °F 62.3 °F 29.90 in WNW 0.2 mph 2 mph 88% 0.00 in 0 W/m2
18:59 64.9 °F 62.2 °F 29.90 in WNW 0.4 mph 3 mph 88% 0.00 in 0 W/m2
19:04 64.9 °F 62.2 °F 29.90 in Calm   2 mph 88% 0.00 in 0 W/m2
19:09 64.8 °F 62.1 °F 29.90 in WNW 1.6 mph 5 mph 88% 0.00 in 0 W/m2
19:14 64.8 °F 62.1 °F 29.90 in WNW 1.8 mph 5 mph 88% 0.00 in 0 W/m2
19:19 64.6 °F 62 °F 29.90 in WNW 1.7 mph 5 mph 88.4% 0.00 in 0 W/m2
19:24 64.6 °F 62.2 °F 29.90 in Calm   2 mph 89% 0.00 in 0 W/m2
19:29 64.6 °F 62.2 °F 29.90 in WNW 0.2 mph 2 mph 89% 0.00 in 0 W/m2
19:34 64.4 °F 62.1 °F 29.90 in WNW 2.6 mph 5 mph 89% 0.00 in 0 W/m2
19:39 64.1 °F 61.9 °F 29.90 in WNW 4.5 mph 7 mph 89.4% 0.00 in 0 W/m2
19:44 64 °F 61.9 °F 29.90 in WNW 3.7 mph 8 mph 90% 0.00 in 0 W/m2
19:49 63.9 °F 61.7 °F 29.90 in West 4.7 mph 9 mph 90% 0.00 in 0 W/m2
19:54 63.7 °F 61.5 °F 29.90 in WSW 3.4 mph 6 mph 90% 0.00 in 0 W/m2
19:59 63.6 °F 61.4 °F 29.90 in WSW 2.8 mph 6 mph 90% 0.00 in 0 W/m2
20:04 63.3 °F 61.2 °F 29.90 in WSW 1.7 mph 6 mph 90% 0.00 in 0 W/m2
20:09 63.3 °F 61.2 °F 29.90 in WSW 3 mph 7 mph 90% 0.00 in 0 W/m2
20:14 63.1 °F 61 °F 29.90 in WSW 2.8 mph 5 mph 90% 0.00 in 0 W/m2
20:19 63.1 °F 60.9 °F 29.90 in WSW 2.6 mph 8 mph 90% 0.00 in 0 W/m2
20:24 63.1 °F 61 °F 29.90 in WSW 1 mph 3 mph 90% 0.00 in 0 W/m2
20:29 63 °F 60.8 °F 29.90 in WSW 1.3 mph 3 mph 90% 0.00 in 0 W/m2
20:34 63 °F 60.8 °F 29.90 in WSW 2.5 mph 6 mph 90% 0.00 in 0 W/m2
20:39 63 °F 60.8 °F 29.90 in WSW 0.4 mph 6 mph 90% 0.00 in 0 W/m2
20:44 63 °F 60.8 °F 29.90 in WSW 1 mph 4 mph 90% 0.00 in 0 W/m2
20:49 62.8 °F 60.6 °F 29.90 in WSW 2.7 mph 8 mph 90% 0.00 in 0 W/m2
20:54 62.8 °F 60.6 °F 29.90 in WSW 2.5 mph 7 mph 90% 0.00 in 0 W/m2
20:59 62.8 °F 60.6 °F 29.90 in WSW 1.4 mph 5 mph 90% 0.00 in 0 W/m2
21:04 62.8 °F 60.6 °F 29.90 in Calm   1 mph 90% 0.00 in 0 W/m2
21:09 62.8 °F 60.6 °F 29.90 in WSW 0.4 mph 2 mph 90% 0.00 in 0 W/m2
21:14 62.8 °F 60.6 °F 29.89 in Calm     90% 0.00 in 0 W/m2
21:19 62.8 °F 60.6 °F 29.89 in WSW 0.4 mph 2 mph 90% 0.00 in 0 W/m2
21:24 62.8 °F 60.6 °F 29.89 in WSW 1 mph 4 mph 90% 0.00 in 0 W/m2
21:29 62.4 °F 60.3 °F 29.89 in WSW 0.2 mph 2 mph 90% 0.00 in 0 W/m2
21:34 62.4 °F 60.3 °F 29.89 in Calm   1 mph 90% 0.00 in 0 W/m2
21:39 62.4 °F 60.3 °F 29.89 in Calm     90% 0.00 in 0 W/m2
21:44 62.2 °F 60.1 °F 29.89 in WSW 0.9 mph 4 mph 90% 0.00 in 0 W/m2
21:49 62 °F 59.6 °F 29.90 in WSW 1 mph 4 mph 89% 0.00 in 0 W/m2
21:54 62 °F 59.7 °F 29.90 in WSW 1 mph 5 mph 89.2% 0.00 in 0 W/m2
21:59 61.9 °F 59.5 °F 29.90 in WSW 1.4 mph 4 mph 89% 0.00 in 0 W/m2
22:04 61.6 °F 59.3 °F 29.90 in WSW 2.5 mph 5 mph 89% 0.00 in 0 W/m2
22:09 61.3 °F 58.9 °F 29.90 in WSW 0.2 mph 2 mph 88.6% 0.00 in 0 W/m2
22:14 61.3 °F 58.6 °F 29.90 in WSW 0.6 mph 3 mph 88% 0.00 in 0 W/m2
22:19 61.2 °F 58.5 °F 29.90 in Calm     88% 0.00 in 0 W/m2
22:24 61.1 °F 58.4 °F 29.90 in WSW 0.6 mph 3 mph 88% 0.00 in 0 W/m2
22:29 60.8 °F 58.1 °F 29.90 in WSW 0.4 mph 3 mph 88% 0.00 in 0 W/m2
22:34 60.6 °F 57.9 °F 29.90 in WSW 0.4 mph 2 mph 88% 0.00 in 0 W/m2
22:39 60.6 °F 57.9 °F 29.90 in WSW 0.2 mph 2 mph 88% 0.00 in 0 W/m2
22:44 60.4 °F 57.7 °F 29.90 in WSW 1.4 mph 4 mph 88% 0.00 in 0 W/m2
22:49 60.4 °F 58 °F 29.90 in Calm     88.8% 0.00 in 0 W/m2
22:54 60.4 °F 58.1 °F 29.90 in WSW 0.4 mph 3 mph 89% 0.00 in 0 W/m2
22:59 60.4 °F 58.1 °F 29.90 in WSW 0.5 mph 3 mph 89% 0.00 in 0 W/m2
23:04 60.4 °F 58.1 °F 29.90 in WSW 1.8 mph 3 mph 89% 0.00 in 0 W/m2
23:09 60.4 °F 58.1 °F 29.90 in WSW 0.4 mph 3 mph 89% 0.00 in 0 W/m2
23:14 60.3 °F 57.9 °F 29.90 in WSW 0.4 mph 2 mph 89% 0.00 in 0 W/m2
23:19 60.3 °F 57.9 °F 29.90 in WSW 0.4 mph 3 mph 89% 0.00 in 0 W/m2
23:24 60.2 °F 57.8 °F 29.90 in WSW 1.2 mph 3 mph 89% 0.00 in 0 W/m2
23:29 60.1 °F 57.7 °F 29.89 in WSW 0.4 mph 3 mph 89% 0.00 in 0 W/m2
23:34 60.1 °F 57.7 °F 29.89 in Calm   1 mph 89% 0.00 in 0 W/m2
23:39 59.9 °F 57.6 °F 29.89 in Calm   1 mph 89% 0.00 in 0 W/m2
23:44 59.9 °F 57.6 °F 29.89 in WSW 1 mph 3 mph 89% 0.00 in 0 W/m2
23:49 59.7 °F 57.4 °F 29.89 in WSW 1.6 mph 4 mph 89% 0.00 in 0 W/m2
23:54 59.7 °F 57.4 °F 29.89 in Calm   3 mph 89% 0.00 in 0 W/m2
23:59 59.6 °F 57.3 °F 29.89 in WSW 0.2 mph 3 mph 89% 0.00 in 0 W/m2
Bath Spa Weather
Compliments of Weather Underground - 2 mb